Time;durP1;ratioP1;P1;durP2;ratioP2;P2;SDS_P1;SDS_P2;PMS_P1;PMS_P2;Temp;Humidity;BMP_temperature;BMP_pressure;BME280_temperature;BME280_humidity;BME280_pressure;Samples;Min_cycle;Max_cycle;Signal;HPM_P1;HPM_P2
2021/08/09 00:01:34;;;;;;;15.47;3.77;;;15.00;94.20;;;;;;5033542;28;20136;-67
2021/08/09 00:04:02;;;;;;;10.67;3.67;;;15.10;94.20;;;;;;5032697;28;20053;-66
2021/08/09 00:06:28;;;;;;;11.23;4.03;;;15.00;94.20;;;;;;5032625;28;20049;-67
2021/08/09 00:08:53;;;;;;;10.07;3.70;;;15.00;94.20;;;;;;5033459;28;20045;-68
2021/08/09 00:11:19;;;;;;;12.93;4.13;;;15.00;94.30;;;;;;5032461;28;20608;-66
2021/08/09 00:13:45;;;;;;;13.67;3.73;;;15.00;94.40;;;;;;5033429;28;20081;-66
2021/08/09 00:16:10;;;;;;;9.27;3.40;;;15.00;94.40;;;;;;5032837;28;20526;-66
2021/08/09 00:18:36;;;;;;;10.40;3.90;;;15.10;94.80;;;;;;5032368;28;20538;-67
2021/08/09 00:21:02;;;;;;;13.80;4.33;;;15.00;94.40;;;;;;5032948;28;20123;-65
2021/08/09 00:23:28;;;;;;;10.67;3.70;;;15.00;94.90;;;;;;5033149;28;20046;-66
2021/08/09 00:25:53;;;;;;;14.27;4.03;;;15.00;94.50;;;;;;5032403;28;20077;-67
2021/08/09 00:28:19;;;;;;;9.00;3.70;;;15.00;94.40;;;;;;5032624;28;20068;-67
2021/08/09 00:30:46;;;;;;;11.73;3.77;;;15.00;94.40;;;;;;5032910;28;20057;-67
2021/08/09 00:33:11;;;;;;;10.50;3.90;;;15.00;94.50;;;;;;5031783;28;20053;-66
2021/08/09 00:35:37;;;;;;;9.67;3.70;;;15.00;94.40;;;;;;5032989;28;20049;-67
2021/08/09 00:38:02;;;;;;;10.77;4.50;;;15.00;94.40;;;;;;5031774;28;20045;-66
2021/08/09 00:40:28;;;;;;;14.73;4.10;;;15.00;94.50;;;;;;5032727;28;20060;-66
2021/08/09 00:42:54;;;;;;;12.90;4.37;;;15.00;94.50;;;;;;5032714;28;20486;-66
2021/08/09 00:45:20;;;;;;;8.63;3.80;;;14.90;94.50;;;;;;5031648;28;20195;-65
2021/08/09 00:47:46;;;;;;;11.90;4.20;;;15.00;94.50;;;;;;5032445;28;20053;-66
2021/08/09 00:50:12;;;;;;;13.23;3.53;;;14.90;94.50;;;;;;5032409;28;20046;-66
2021/08/09 00:52:38;;;;;;;10.03;4.10;;;14.90;94.50;;;;;;5031761;28;20084;-66
2021/08/09 00:55:04;;;;;;;16.47;4.63;;;14.90;94.90;;;;;;5032221;28;20045;-67
2021/08/09 00:57:30;;;;;;;13.43;4.00;;;14.90;94.60;;;;;;5032369;28;20056;-66
2021/08/09 00:59:58;;;;;;;11.17;4.27;;;14.90;94.60;;;;;;5031698;28;20098;-65
2021/08/09 01:02:23;;;;;;;12.63;4.23;;;14.90;94.60;;;;;;5031876;28;20052;-66
2021/08/09 01:04:49;;;;;;;8.80;4.03;;;14.80;94.70;;;;;;5032268;28;20041;-65
2021/08/09 01:07:15;;;;;;;11.33;4.70;;;14.80;94.70;;;;;;5031319;28;20136;-66
2021/08/09 01:09:49;;;;;;;13.80;4.30;;;14.70;94.60;;;;;;5032285;28;20101;-66
2021/08/09 01:12:39;;;;;;;11.43;4.40;;;14.70;94.80;;;;;;5032094;28;20045;-66
2021/08/09 01:15:27;;;;;;;16.23;4.93;;;14.70;94.80;;;;;;5031323;28;20042;-66
2021/08/09 01:17:56;;;;;;;13.17;4.90;;;14.70;94.80;;;;;;5031841;28;20502;-65
2021/08/09 01:20:40;;;;;;;15.53;4.33;;;14.60;94.80;;;;;;5031235;28;20149;-66
2021/08/09 01:23:31;;;;;;;12.10;4.80;;;14.60;94.80;;;;;;5031936;28;20111;-66
2021/08/09 01:26:08;;;;;;;13.98;5.00;;;14.60;94.90;;;;;;5032314;28;20060;-65
2021/08/09 01:28:34;;;;;;;14.80;4.77;;;14.50;94.90;;;;;;5031490;28;20107;-66
2021/08/09 01:31:00;;;;;;;16.83;4.87;;;14.50;95.00;;;;;;5031802;28;20049;-66
2021/08/09 01:33:29;;;;;;;12.53;4.37;;;14.50;95.00;;;;;;5032021;28;20053;-65
2021/08/09 01:35:56;;;;;;;13.57;5.37;;;14.50;95.00;;;;;;5031300;28;20538;-65
2021/08/09 01:38:25;;;;;;;13.07;5.47;;;14.50;95.10;;;;;;5031784;28;20054;-65
2021/08/09 01:40:56;;;;;;;18.13;5.83;;;14.50;95.10;;;;;;5031954;28;20073;-65
2021/08/09 01:43:23;;;;;;;13.63;5.78;;;14.50;95.10;;;;;;5030995;28;20108;-66
2021/08/09 01:45:51;;;;;;;14.60;4.67;;;14.60;95.20;;;;;;5031857;28;20129;-66
2021/08/09 01:48:18;;;;;;;11.50;5.10;;;14.60;95.20;;;;;;5031000;28;20046;-66
2021/08/09 01:50:44;;;;;;;14.80;5.00;;;14.60;95.20;;;;;;5032068;28;20048;-66
2021/08/09 01:53:12;;;;;;;18.40;5.73;;;14.60;95.20;;;;;;5031737;28;20045;-66
2021/08/09 01:55:39;;;;;;;14.77;4.97;;;14.60;95.20;;;;;;5031218;28;20136;-66
2021/08/09 01:58:05;;;;;;;9.70;4.07;;;14.60;95.20;;;;;;5031532;28;20049;-66
2021/08/09 02:00:31;;;;;;;12.23;4.93;;;14.70;95.20;;;;;;5031724;28;20045;-66
2021/08/09 02:02:57;;;;;;;10.97;5.23;;;14.70;95.10;;;;;;5031207;28;20073;-66
2021/08/09 02:05:23;;;;;;;15.93;4.70;;;14.70;95.10;;;;;;5031581;28;20077;-66
2021/08/09 02:08:02;;;;;;;11.37;4.30;;;14.70;95.00;;;;;;5031858;28;20498;-66
2021/08/09 02:10:30;;;;;;;12.93;4.50;;;14.70;95.00;;;;;;5031108;28;20103;-66
2021/08/09 02:13:23;;;;;;;15.60;5.80;;;14.70;95.00;;;;;;5031690;28;20045;-66
2021/08/09 02:16:02;;;;;;;12.67;4.40;;;14.80;95.00;;;;;;5031645;28;20509;-66
2021/08/09 02:18:45;;;;;;;15.63;4.80;;;14.70;95.00;;;;;;5030925;28;20136;-66
2021/08/09 02:21:15;;;;;;;17.67;4.50;;;14.70;94.90;;;;;;5031214;28;20045;-66
2021/08/09 02:24:01;;;;;;;14.33;4.33;;;14.70;94.90;;;;;;5031053;28;20045;-67
2021/08/09 02:26:33;;;;;;;13.30;4.40;;;14.70;94.90;;;;;;5031502;28;20498;-66
2021/08/09 02:29:24;;;;;;;11.73;4.60;;;14.70;94.90;;;;;;5031786;28;20082;-65
2021/08/09 02:31:51;;;;;;;16.83;4.70;;;14.70;94.90;;;;;;5034469;28;20072;-65
2021/08/09 02:34:21;;;;;;;13.33;4.07;;;14.70;94.90;;;;;;5034866;28;20049;-66
2021/08/09 02:36:47;;;;;;;12.33;4.40;;;14.70;94.90;;;;;;5035078;28;20050;-66
2021/08/09 02:39:15;;;;;;;16.83;5.10;;;14.70;94.90;;;;;;5033909;28;20136;-66
2021/08/09 02:41:41;;;;;;;15.33;4.70;;;14.70;94.90;;;;;;5034949;28;20053;-66
2021/08/09 02:44:07;;;;;;;14.50;4.47;;;14.70;94.80;;;;;;5034416;28;20065;-66
2021/08/09 02:46:34;;;;;;;12.10;4.87;;;14.70;94.80;;;;;;5034153;28;20076;-66
2021/08/09 02:49:00;;;;;;;13.87;4.33;;;14.70;94.80;;;;;;5034523;28;20088;-65
2021/08/09 02:51:26;;;;;;;14.77;5.37;;;14.70;94.80;;;;;;5034834;28;20129;-65
2021/08/09 02:53:53;;;;;;;13.70;4.40;;;14.70;94.80;;;;;;5034263;28;20157;-65
2021/08/09 02:56:23;;;;;;;14.13;4.17;;;14.70;94.80;;;;;;5034336;28;20057;-66
2021/08/09 02:58:50;;;;;;;16.07;5.27;;;14.60;94.80;;;;;;5034231;28;20759;-66
2021/08/09 03:01:18;;;;;;;9.10;3.80;;;14.60;94.80;;;;;;5034369;28;20069;-66
2021/08/09 03:03:47;;;;;;;13.23;4.93;;;14.60;94.80;;;;;;5034661;28;20137;-65
2021/08/09 03:06:13;;;;;;;15.87;4.60;;;14.60;94.80;;;;;;5033572;28;20053;-65
2021/08/09 03:08:39;;;;;;;11.87;5.70;;;14.50;94.80;;;;;;5034371;28;20516;-65
2021/08/09 03:11:06;;;;;;;10.90;5.60;;;14.50;94.80;;;;;;5034026;28;20046;-66
2021/08/09 03:13:32;;;;;;;14.70;4.40;;;14.50;94.90;;;;;;5033604;28;20052;-65
2021/08/09 03:16:01;;;;;;;13.23;5.27;;;14.40;94.90;;;;;;5034354;28;20061;-66
2021/08/09 03:18:34;;;;;;;15.33;4.70;;;14.40;95.00;;;;;;5034353;28;20049;-65
2021/08/09 03:21:00;;;;;;;12.10;5.00;;;14.40;95.00;;;;;;5033124;28;20513;-66
2021/08/09 03:23:25;;;;;;;11.77;4.87;;;14.40;95.00;;;;;;5034167;28;20049;-66
2021/08/09 03:25:51;;;;;;;17.50;5.90;;;14.40;95.00;;;;;;5033950;28;20053;-65
2021/08/09 03:28:17;;;;;;;14.77;5.27;;;14.40;95.10;;;;;;5032972;28;20050;-66
2021/08/09 03:30:43;;;;;;;11.53;4.67;;;14.40;95.10;;;;;;5034127;28;20053;-65
2021/08/09 03:33:09;;;;;;;15.97;5.57;;;14.30;95.10;;;;;;5033574;28;20403;-66
2021/08/09 03:35:35;;;;;;;16.87;4.57;;;14.30;95.10;;;;;;5033357;28;20052;-65
2021/08/09 03:38:00;;;;;;;20.80;5.63;;;14.30;95.20;;;;;;5033578;28;20099;-66
2021/08/09 03:40:26;;;;;;;19.97;5.60;;;14.30;95.20;;;;;;5033663;28;20053;-65
2021/08/09 03:42:53;;;;;;;18.07;5.40;;;14.30;95.20;;;;;;5033221;28;20478;-65
2021/08/09 03:45:20;;;;;;;19.63;5.40;;;14.30;95.30;;;;;;5033680;28;20045;-66
2021/08/09 03:47:47;;;;;;;15.17;5.40;;;14.30;95.30;;;;;;5033111;28;20049;-65
2021/08/09 03:50:13;;;;;;;13.30;4.33;;;14.30;95.30;;;;;;5033416;28;20099;-65
2021/08/09 03:52:46;;;;;;;20.43;5.50;;;14.30;95.30;;;;;;5033678;28;20410;-65
2021/08/09 03:55:12;;;;;;;13.53;5.37;;;14.30;95.30;;;;;;5032358;28;20589;-65
2021/08/09 03:57:38;;;;;;;17.17;4.93;;;14.30;95.30;;;;;;5033699;28;20132;-65
2021/08/09 04:00:05;;;;;;;18.57;5.60;;;14.30;95.30;;;;;;5033177;28;20056;-66
2021/08/09 04:02:31;;;;;;;15.67;5.37;;;14.30;95.30;;;;;;5032628;28;20081;-65
2021/08/09 04:04:58;;;;;;;20.20;5.90;;;14.30;95.40;;;;;;5033310;28;20063;-66
2021/08/09 04:07:27;;;;;;;17.73;5.83;;;14.30;95.30;;;;;;5033075;28;20045;-65
2021/08/09 04:09:56;;;;;;;15.50;5.53;;;14.30;95.40;;;;;;5032755;28;20056;-65
2021/08/09 04:12:22;;;;;;;21.63;6.10;;;14.30;95.40;;;;;;5033148;28;20055;-65
2021/08/09 04:14:48;;;;;;;15.30;5.73;;;14.30;95.40;;;;;;5033271;28;20124;-64
2021/08/09 04:17:14;;;;;;;13.33;4.83;;;14.30;95.50;;;;;;5032022;28;20160;-66
2021/08/09 04:19:40;;;;;;;19.70;5.40;;;14.30;95.50;;;;;;5033094;28;20124;-65
2021/08/09 04:22:06;;;;;;;14.10;5.07;;;14.30;95.50;;;;;;5032650;28;20140;-66
2021/08/09 04:24:32;;;;;;;14.10;6.17;;;14.30;95.60;;;;;;5032441;28;20056;-66
2021/08/09 04:26:58;;;;;;;14.13;5.07;;;14.30;95.60;;;;;;5033109;28;20132;-65
2021/08/09 04:29:24;;;;;;;20.30;5.93;;;14.30;95.50;;;;;;5033027;28;20188;-66
2021/08/09 04:31:50;;;;;;;13.87;5.83;;;14.30;95.50;;;;;;5032137;28;20049;-68
2021/08/09 04:34:16;;;;;;;17.33;5.40;;;14.30;95.50;;;;;;5032792;28;20053;-67
2021/08/09 04:36:42;;;;;;;20.00;5.83;;;14.30;95.50;;;;;;5032736;28;20107;-67
2021/08/09 04:39:07;;;;;;;15.67;5.70;;;14.30;95.50;;;;;;5031934;28;20111;-67
2021/08/09 04:41:33;;;;;;;15.23;5.40;;;14.30;95.50;;;;;;5032656;28;20129;-67
2021/08/09 04:44:05;;;;;;;19.27;5.30;;;14.30;95.50;;;;;;5031686;28;20478;-67
2021/08/09 04:46:34;;;;;;;15.67;4.63;;;14.30;95.50;;;;;;5032584;28;20292;-67
2021/08/09 04:49:00;;;;;;;18.43;5.97;;;14.40;95.50;;;;;;5032266;28;20049;-64
2021/08/09 04:51:25;;;;;;;16.83;5.13;;;14.30;95.50;;;;;;5031490;28;20054;-65
2021/08/09 04:53:51;;;;;;;13.17;5.37;;;14.30;95.40;;;;;;5032104;28;20103;-65
2021/08/09 04:56:18;;;;;;;12.67;4.80;;;14.30;95.40;;;;;;5032197;28;20057;-65
2021/08/09 04:58:44;;;;;;;16.70;5.27;;;14.30;95.40;;;;;;5031600;28;20045;-65
2021/08/09 05:01:09;;;;;;;17.53;5.40;;;14.30;95.40;;;;;;5031654;28;20064;-64
2021/08/09 05:03:39;;;;;;;14.00;5.43;;;14.30;95.40;;;;;;5032286;28;20119;-67
2021/08/09 05:06:13;;;;;;;18.77;4.57;;;14.30;95.50;;;;;;5031403;28;20191;-64
2021/08/09 05:08:38;;;;;;;15.00;5.37;;;14.30;95.40;;;;;;5032378;28;20132;-65
2021/08/09 05:11:04;;;;;;;19.13;6.30;;;14.30;95.50;;;;;;5032031;28;20045;-65
2021/08/09 05:13:30;;;;;;;14.83;5.00;;;14.30;95.50;;;;;;5031365;28;20088;-64
2021/08/09 05:15:55;;;;;;;15.60;4.80;;;14.30;95.50;;;;;;5031958;28;20052;-65
2021/08/09 05:18:21;;;;;;;14.17;4.97;;;14.30;95.50;;;;;;5031759;28;20049;-65
2021/08/09 05:20:47;;;;;;;15.37;5.10;;;14.30;95.50;;;;;;5031353;28;20103;-67
2021/08/09 05:23:14;;;;;;;15.80;5.07;;;14.30;95.50;;;;;;5031931;28;20388;-67
2021/08/09 05:25:40;;;;;;;14.63;5.50;;;14.30;95.50;;;;;;5032201;28;20130;-67
2021/08/09 05:28:06;;;;;;;10.40;4.43;;;14.30;95.50;;;;;;5031014;28;20425;-65
2021/08/09 05:30:32;;;;;;;13.07;5.33;;;14.40;95.50;;;;;;5032138;28;20045;-65
2021/08/09 05:33:01;;;;;;;15.07;4.83;;;14.40;95.50;;;;;;5031830;28;20049;-66
2021/08/09 05:35:28;;;;;;;16.40;5.53;;;14.40;95.50;;;;;;5031273;28;20137;-66
2021/08/09 05:37:54;;;;;;;16.63;5.83;;;14.40;95.50;;;;;;5032172;28;20073;-67
2021/08/09 05:40:20;;;;;;;12.63;5.57;;;14.40;95.40;;;;;;5030993;28;20128;-66
2021/08/09 05:42:48;;;;;;;18.27;4.87;;;14.40;95.40;;;;;;5031934;28;20133;-67
2021/08/09 05:45:14;;;;;;;16.10;5.37;;;14.50;95.40;;;;;;5031575;28;20113;-67
2021/08/09 05:47:39;;;;;;;16.10;5.40;;;14.50;95.40;;;;;;5031213;28;20219;-66
2021/08/09 05:50:05;;;;;;;14.63;5.57;;;14.50;95.40;;;;;;5031672;28;20049;-66
2021/08/09 05:52:31;;;;;;;13.70;5.47;;;14.40;95.30;;;;;;5031878;28;20073;-66
2021/08/09 05:55:02;;;;;;;18.07;5.60;;;14.50;95.40;;;;;;5031046;28;20479;-66
2021/08/09 05:57:28;;;;;;;12.85;4.93;;;14.50;95.40;;;;;;5031864;28;20046;-66
2021/08/09 05:59:54;;;;;;;14.60;5.37;;;14.50;95.40;;;;;;5031531;28;20516;-66
2021/08/09 06:02:20;;;;;;;14.80;5.30;;;14.50;95.40;;;;;;5030700;28;20055;-66
2021/08/09 06:04:45;;;;;;;13.93;5.00;;;14.60;95.30;;;;;;5033156;28;20046;-66
2021/08/09 06:07:13;;;;;;;14.00;5.37;;;14.60;95.30;;;;;;5035441;28;20060;-66
2021/08/09 06:09:39;;;;;;;16.87;5.23;;;14.60;95.30;;;;;;5034704;28;20187;-67
2021/08/09 06:12:05;;;;;;;18.73;6.30;;;14.60;95.20;;;;;;5035243;28;20149;-66
2021/08/09 06:14:30;;;;;;;15.47;5.03;;;14.60;95.20;;;;;;5035162;28;20045;-66
2021/08/09 06:16:56;;;;;;;15.63;4.80;;;14.60;95.20;;;;;;5034421;28;20060;-67
2021/08/09 06:19:21;;;;;;;19.97;5.30;;;14.70;95.20;;;;;;5035179;28;20075;-65
2021/08/09 06:21:47;;;;;;;11.60;4.83;;;14.70;95.10;;;;;;5035316;28;20050;-66
2021/08/09 06:24:13;;;;;;;17.07;5.50;;;14.70;95.10;;;;;;5034275;28;20419;-66
2021/08/09 06:26:38;;;;;;;15.77;4.90;;;14.70;95.00;;;;;;5035186;28;20053;-66
2021/08/09 06:29:04;;;;;;;18.47;5.93;;;14.70;95.00;;;;;;5034896;28;20045;-67
2021/08/09 06:31:29;;;;;;;14.93;5.20;;;14.70;95.00;;;;;;5034560;28;20059;-66
2021/08/09 06:33:55;;;;;;;14.10;5.30;;;14.70;94.90;;;;;;5035099;28;20053;-67
2021/08/09 06:36:21;;;;;;;14.47;5.00;;;14.70;94.90;;;;;;5034266;28;20544;-66
2021/08/09 06:38:47;;;;;;;11.50;4.97;;;14.80;94.90;;;;;;5034230;28;20046;-66
2021/08/09 06:41:21;;;;;;;16.93;5.33;;;14.80;94.90;;;;;;5034073;28;20049;-66
2021/08/09 06:43:47;;;;;;;12.77;4.60;;;14.80;94.90;;;;;;5044064;28;20045;-65
2021/08/09 06:46:14;;;;;;;16.43;5.27;;;14.80;94.90;;;;;;5042300;28;20115;-66
2021/08/09 06:48:40;;;;;;;12.63;5.03;;;14.90;94.80;;;;;;5027434;28;20045;-66
2021/08/09 06:51:08;;;;;;;13.93;4.77;;;14.90;94.70;;;;;;5044109;28;20037;-66
2021/08/09 06:53:34;;;;;;;18.53;5.10;;;14.90;94.60;;;;;;5049100;28;20041;-65
2021/08/09 06:56:00;;;;;;;20.13;5.93;;;14.90;94.60;;;;;;5048246;28;20127;-66
2021/08/09 06:58:26;;;;;;;12.87;4.83;;;15.00;94.50;;;;;;5031349;28;20148;-65
2021/08/09 07:00:51;;;;;;;18.80;4.87;;;15.10;94.50;;;;;;5031171;28;20043;-67
2021/08/09 07:03:17;;;;;;;16.27;4.50;;;15.10;94.40;;;;;;5031140;28;20053;-66
2021/08/09 07:05:48;;;;;;;15.67;4.63;;;15.20;94.40;;;;;;5031883;28;20132;-68
2021/08/09 07:08:14;;;;;;;20.07;5.20;;;15.30;94.30;;;;;;5029959;28;20052;-65
2021/08/09 07:10:41;;;;;;;17.20;5.43;;;15.30;94.20;;;;;;5030669;28;20049;-65
2021/08/09 07:13:07;;;;;;;16.03;5.67;;;15.40;94.20;;;;;;5029081;28;20042;-65
2021/08/09 07:15:33;;;;;;;16.47;5.00;;;15.50;94.10;;;;;;5029696;28;20072;-66
2021/08/09 07:17:58;;;;;;;19.07;5.53;;;15.50;94.00;;;;;;5030380;28;20041;-65
2021/08/09 07:20:24;;;;;;;18.23;5.43;;;15.70;94.00;;;;;;5030138;28;20049;-65
2021/08/09 07:22:50;;;;;;;14.53;5.33;;;15.80;94.10;;;;;;5030218;28;20057;-65
2021/08/09 07:25:17;;;;;;;17.80;6.30;;;15.90;94.00;;;;;;5030393;28;20042;-65
2021/08/09 07:27:43;;;;;;;15.83;4.97;;;16.10;94.00;;;;;;5029956;28;20140;-65
2021/08/09 07:30:11;;;;;;;20.63;5.53;;;16.20;93.70;;;;;;5029848;28;20053;-64
2021/08/09 07:32:37;;;;;;;12.40;4.20;;;16.30;93.50;;;;;;5030382;28;20046;-64
2021/08/09 07:35:04;;;;;;;12.03;4.40;;;16.40;93.40;;;;;;5029161;28;20045;-65
2021/08/09 07:37:37;;;;;;;17.83;5.23;;;16.40;93.30;;;;;;5030733;28;20103;-69
2021/08/09 07:40:04;;;;;;;14.20;5.17;;;16.50;93.10;;;;;;5028957;28;20107;-66
2021/08/09 07:42:30;;;;;;;20.03;5.03;;;16.50;93.10;;;;;;5030079;28;20045;-66
2021/08/09 07:44:57;;;;;;;16.17;5.07;;;16.60;93.10;;;;;;5029791;28;20052;-67
2021/08/09 07:47:23;;;;;;;19.57;5.13;;;16.60;93.00;;;;;;5029591;28;20453;-66
2021/08/09 07:49:48;;;;;;;18.63;5.30;;;16.60;93.00;;;;;;5030097;28;20046;-65
2021/08/09 07:52:14;;;;;;;15.23;4.73;;;16.70;92.80;;;;;;5039766;28;20045;-66
2021/08/09 07:54:40;;;;;;;14.27;4.43;;;16.70;92.60;;;;;;5048963;28;20049;-65
2021/08/09 07:57:06;;;;;;;17.97;4.83;;;16.70;92.90;;;;;;5049227;28;20052;-65
2021/08/09 07:59:33;;;;;;;16.00;4.80;;;16.70;92.40;;;;;;5049223;28;20482;-65
2021/08/09 08:02:03;;;;;;;16.00;5.43;;;16.70;92.50;;;;;;5048402;28;20156;-66
2021/08/09 08:04:29;;;;;;;15.10;4.63;;;16.70;92.50;;;;;;5050003;28;20052;-65
2021/08/09 08:06:55;;;;;;;15.83;5.00;;;16.70;92.20;;;;;;5049056;28;20069;-65
2021/08/09 08:09:21;;;;;;;14.87;5.00;;;16.70;92.40;;;;;;5048264;28;20103;-65
2021/08/09 08:11:46;;;;;;;17.33;4.90;;;16.80;92.40;;;;;;5049191;28;20041;-65
2021/08/09 08:14:12;;;;;;;14.97;4.90;;;16.80;92.30;;;;;;5049398;28;20052;-65
2021/08/09 08:16:39;;;;;;;17.00;4.90;;;16.80;92.40;;;;;;5048797;28;20057;-66
2021/08/09 08:19:04;;;;;;;16.50;4.53;;;16.90;92.40;;;;;;5048679;28;20056;-65
2021/08/09 08:21:31;;;;;;;14.37;4.40;;;16.90;92.10;;;;;;5049430;28;20053;-65
2021/08/09 08:23:57;;;;;;;16.10;4.90;;;16.90;92.50;;;;;;5050631;28;20049;-65
2021/08/09 08:26:23;;;;;;;16.07;4.83;;;16.90;91.80;;;;;;5052014;28;20073;-65
2021/08/09 08:28:49;;;;;;;12.23;4.10;;;16.90;91.80;;;;;;5052482;28;20056;-66
2021/08/09 08:31:14;;;;;;;17.70;5.53;;;16.90;91.70;;;;;;5051564;28;20048;-66
2021/08/09 08:33:40;;;;;;;21.93;5.17;;;16.80;91.70;;;;;;5052611;28;20087;-66
2021/08/09 08:36:06;;;;;;;16.13;4.67;;;16.90;91.80;;;;;;5051737;28;20052;-66
2021/08/09 08:38:34;;;;;;;15.83;4.87;;;16.90;91.80;;;;;;5052130;28;20118;-66
2021/08/09 08:41:04;;;;;;;15.93;4.90;;;16.90;91.80;;;;;;5051147;28;20053;-67
2021/08/09 08:43:29;;;;;;;14.93;4.80;;;17.00;91.60;;;;;;5050086;28;20045;-66
2021/08/09 08:46:14;;;;;;;14.23;4.93;;;17.00;91.60;;;;;;5051221;28;20041;-66
2021/08/09 08:48:39;;;;;;;17.53;4.33;;;17.00;91.50;;;;;;5051408;28;20493;-64
2021/08/09 08:51:05;;;;;;;14.67;4.30;;;17.10;91.50;;;;;;5050654;28;20051;-64
2021/08/09 08:53:33;;;;;;;15.70;4.20;;;17.10;91.50;;;;;;5051698;28;20041;-66
2021/08/09 08:56:00;;;;;;;13.87;4.50;;;17.20;91.40;;;;;;5051790;28;20041;-65
2021/08/09 08:58:25;;;;;;;14.27;5.13;;;17.20;91.30;;;;;;5051555;28;20135;-65
2021/08/09 09:00:51;;;;;;;15.97;4.50;;;17.30;91.20;;;;;;5052095;28;20502;-66
2021/08/09 09:03:19;;;;;;;11.20;4.07;;;17.50;91.20;;;;;;5051788;28;20079;-65
2021/08/09 09:06:05;;;;;;;18.10;4.80;;;17.70;91.30;;;;;;5051837;28;20049;-65
2021/08/09 09:08:45;;;;;;;15.93;4.60;;;17.80;90.90;;;;;;5052468;28;20052;-66
2021/08/09 09:11:12;;;;;;;14.47;4.10;;;18.00;90.60;;;;;;5051897;28;20064;-66
2021/08/09 09:13:54;;;;;;;14.63;3.80;;;17.90;90.20;;;;;;5051280;28;20133;-66
2021/08/09 09:16:20;;;;;;;15.73;4.30;;;18.00;88.60;;;;;;5051713;28;20095;-66
2021/08/09 09:18:55;;;;;;;11.53;4.00;;;17.90;89.90;;;;;;5051324;28;20136;-66
2021/08/09 09:21:34;;;;;;;14.43;3.87;;;18.00;89.90;;;;;;5051684;28;20049;-67
2021/08/09 09:24:26;;;;;;;14.23;3.80;;;18.10;88.60;;;;;;5051754;28;20049;-65
2021/08/09 09:26:57;;;;;;;12.47;3.13;;;18.20;86.50;;;;;;5049332;28;20124;-66
2021/08/09 09:29:24;;;;;;;;;;;18.30;88.90;;;;;;5052152;28;20454;-66
2021/08/09 09:31:51;;;;;;;13.17;4.50;;;18.40;84.40;;;;;;5052100;28;20024;-66
2021/08/09 09:34:20;;;;;;;12.23;4.40;;;18.40;88.00;;;;;;5051005;28;20049;-66
2021/08/09 09:36:54;;;;;;;13.03;4.10;;;18.50;87.50;;;;;;5051713;28;20053;-66
2021/08/09 09:39:39;;;;;;;12.43;3.47;;;18.70;87.60;;;;;;5054209;28;20106;-65
2021/08/09 09:42:08;;;;;;;10.77;3.53;;;18.80;86.40;;;;;;5055640;28;20482;-65
2021/08/09 09:44:36;;;;;;;12.50;3.53;;;18.90;86.10;;;;;;5055958;28;20163;-65
2021/08/09 09:47:26;;;;;;;12.13;3.20;;;19.00;84.90;;;;;;5054762;28;20049;-65
2021/08/09 09:49:58;;;;;;;11.63;3.20;;;18.90;82.00;;;;;;5056040;28;20052;-66
2021/08/09 09:52:39;;;;;;;7.67;2.00;;;18.80;82.30;;;;;;5055532;28;20049;-66
2021/08/09 09:55:10;;;;;;;9.00;2.70;;;18.80;80.60;;;;;;5054447;28;20139;-65
2021/08/09 09:57:36;;;;;;;10.67;3.63;;;18.80;81.00;;;;;;5055648;28;20053;-67
2021/08/09 10:00:07;;;;;;;7.77;2.43;;;18.90;80.80;;;;;;5055367;28;20299;-66
2021/08/09 10:02:33;;;;;;;10.00;3.10;;;19.00;80.00;;;;;;5054909;28;20140;-67
2021/08/09 10:05:01;;;;;;;8.60;2.23;;;19.10;79.20;;;;;;5055587;28;20155;-66
2021/08/09 10:07:28;;;;;;;6.97;2.30;;;19.20;78.70;;;;;;5055555;28;20045;-67
2021/08/09 10:09:55;;;;;;;7.80;1.97;;;19.30;78.20;;;;;;5054565;28;20041;-65
2021/08/09 10:12:29;;;;;;;7.77;2.20;;;19.30;77.40;;;;;;5054837;28;20049;-65
2021/08/09 10:14:56;;;;;;;8.77;2.27;;;19.30;77.30;;;;;;5054661;28;20101;-65
2021/08/09 10:17:22;;;;;;;9.00;2.13;;;19.40;77.50;;;;;;5054747;28;20401;-65
2021/08/09 10:19:50;;;;;;;7.90;2.03;;;19.50;77.30;;;;;;5055105;28;20049;-65
2021/08/09 10:22:20;;;;;;;6.43;2.10;;;19.60;76.50;;;;;;5054076;28;20051;-65
2021/08/09 10:24:48;;;;;;;11.37;2.57;;;19.70;76.60;;;;;;5054857;28;20052;-66
2021/08/09 10:27:14;;;;;;;6.87;1.90;;;19.80;75.60;;;;;;5054830;28;20044;-66
2021/08/09 10:30:19;;;;;;;8.67;2.03;;;19.80;75.10;;;;;;5054697;28;20053;-65
2021/08/09 10:32:55;;;;;;;7.80;2.10;;;20.00;72.10;;;;;;5034270;28;20064;-65
2021/08/09 10:35:38;;;;;;;4.73;1.47;;;20.00;73.30;;;;;;5054152;28;20053;-65
2021/08/09 10:38:15;;;;;;;5.90;1.50;;;20.00;71.50;;;;;;5053838;28;20134;-65
2021/08/09 10:40:43;;;;;;;7.80;1.70;;;20.00;71.70;;;;;;5054797;28;20099;-65
2021/08/09 10:43:09;;;;;;;7.40;1.93;;;20.00;72.00;;;;;;5053463;28;20076;-65
2021/08/09 10:45:45;;;;;;;5.03;2.03;;;20.10;72.30;;;;;;5054504;28;20045;-66
2021/08/09 10:48:12;;;;;;;6.10;1.87;;;20.20;71.90;;;;;;5054368;28;20057;-65
2021/08/09 10:50:41;;;;;;;6.87;2.03;;;20.30;72.70;;;;;;5052863;28;20053;-65
2021/08/09 10:53:25;;;;;;;4.73;1.50;;;20.40;72.20;;;;;;5053939;28;20520;-64
2021/08/09 10:55:58;;;;;;;8.27;1.70;;;20.50;70.80;;;;;;5054420;28;20186;-65
2021/08/09 10:58:42;;;;;;;4.87;1.30;;;20.50;70.60;;;;;;5053421;28;20052;-66
2021/08/09 11:01:22;;;;;;;4.23;1.20;;;20.50;68.70;;;;;;5053750;28;20049;-67
2021/08/09 11:04:03;;;;;;;4.13;1.30;;;20.50;69.40;;;;;;5054012;28;20074;-66
2021/08/09 11:06:53;;;;;;;2.47;1.00;;;20.40;69.40;;;;;;5054257;28;20045;-65
2021/08/09 11:09:35;;;;;;;3.77;1.30;;;20.40;69.40;;;;;;5053881;28;20135;-65
2021/08/09 11:12:18;;;;;;;4.90;1.58;;;20.30;69.40;;;;;;5052853;28;20052;-65
2021/08/09 11:15:11;;;;;;;4.83;1.40;;;20.30;70.10;;;;;;5053940;28;20095;-65
2021/08/09 11:17:37;;;;;;;3.37;1.30;;;20.20;70.70;;;;;;5053701;28;20139;-65
2021/08/09 11:20:09;;;;;;;3.80;1.30;;;20.10;71.30;;;;;;5052933;28;20171;-67
2021/08/09 11:22:35;;;;;;;4.07;1.40;;;20.10;70.90;;;;;;5053688;28;20132;-66
2021/08/09 11:25:01;;;;;;;4.77;1.20;;;20.00;71.50;;;;;;5052529;28;20152;-66
2021/08/09 11:27:27;;;;;;;4.40;1.20;;;20.00;71.60;;;;;;5053647;28;20076;-66
2021/08/09 11:29:54;;;;;;;4.10;1.10;;;20.00;72.00;;;;;;5053862;28;20531;-67
2021/08/09 11:32:39;;;;;;;6.73;1.23;;;20.00;70.80;;;;;;5052743;28;20167;-66
2021/08/09 11:35:05;;;;;;;4.53;1.33;;;20.00;70.00;;;;;;5053099;28;20061;-66
2021/08/09 11:37:31;;;;;;;3.80;1.00;;;19.90;71.40;;;;;;5053294;28;20049;-66
2021/08/09 11:39:57;;;;;;;4.43;1.30;;;19.80;70.10;;;;;;5052825;28;20508;-66
2021/08/09 11:42:23;;;;;;;6.00;1.50;;;19.80;70.20;;;;;;5052946;28;20134;-66
2021/08/09 11:44:48;;;;;;;5.87;1.90;;;19.70;70.30;;;;;;5053114;28;20463;-66
2021/08/09 11:47:21;;;;;;;7.57;1.37;;;19.70;70.70;;;;;;5052244;28;20140;-66
2021/08/09 11:49:47;;;;;;;5.20;1.37;;;19.70;71.60;;;;;;5053023;28;20512;-66
2021/08/09 11:52:20;;;;;;;4.00;1.10;;;19.70;71.60;;;;;;5052859;28;20437;-67
2021/08/09 11:54:45;;;;;;;3.20;1.13;;;19.70;71.70;;;;;;5052590;28;20049;-67
2021/08/09 11:57:11;;;;;;;5.73;1.27;;;19.70;71.70;;;;;;5052809;28;20060;-67
2021/08/09 11:59:40;;;;;;;5.93;1.50;;;19.70;71.40;;;;;;5053201;28;20152;-67
2021/08/09 12:02:10;;;;;;;7.90;1.50;;;19.60;71.40;;;;;;5051627;28;20044;-66
2021/08/09 12:04:45;;;;;;;5.90;1.63;;;19.60;71.90;;;;;;5052605;28;20461;-67
2021/08/09 12:07:21;;;;;;;5.13;2.50;;;19.70;71.60;;;;;;5051860;28;20053;-67
2021/08/09 12:09:47;;;;;;;6.63;1.77;;;19.80;73.00;;;;;;5052790;28;20045;-67
2021/08/09 12:12:15;;;;;;;5.20;1.20;;;20.00;72.10;;;;;;5052486;28;20099;-67
2021/08/09 12:14:42;;;;;;;6.43;1.67;;;20.00;71.90;;;;;;5051685;28;20123;-67
2021/08/09 12:17:19;;;;;;;5.13;1.40;;;20.20;71.90;;;;;;5051957;28;20061;-68
2021/08/09 12:19:47;;;;;;;4.40;1.20;;;20.20;71.40;;;;;;5052453;28;20052;-67
2021/08/09 12:22:21;;;;;;;6.43;1.63;;;20.30;71.50;;;;;;5051323;28;20053;-67
2021/08/09 12:25:02;;;;;;;5.23;1.57;;;20.40;71.80;;;;;;5052319;28;20379;-67
2021/08/09 12:27:28;;;;;;;5.95;1.90;;;20.40;71.90;;;;;;5052332;28;20107;-67
2021/08/09 12:30:15;;;;;;;5.03;1.57;;;20.40;71.80;;;;;;5051693;28;20052;-67
2021/08/09 12:32:42;;;;;;;6.03;2.00;;;20.30;71.60;;;;;;5052316;28;20103;-67
2021/08/09 12:35:10;;;;;;;4.30;1.60;;;20.30;71.70;;;;;;5051962;28;20049;-67
2021/08/09 12:37:37;;;;;;;7.17;1.93;;;20.30;72.20;;;;;;5051161;28;20568;-67
2021/08/09 12:40:12;;;;;;;4.63;1.67;;;20.20;72.00;;;;;;5051621;28;20094;-67
2021/08/09 12:42:40;;;;;;;6.07;1.70;;;20.20;71.70;;;;;;5051185;28;20459;-67
2021/08/09 12:45:07;;;;;;;7.33;2.00;;;20.20;72.30;;;;;;5051818;28;20045;-67
2021/08/09 12:47:32;;;;;;;7.20;2.30;;;20.20;72.30;;;;;;5051989;28;20131;-67
2021/08/09 12:49:58;;;;;;;6.13;1.77;;;20.10;72.10;;;;;;5050959;28;20136;-67